HETB/TCP METAR and TAF weather

Enter ICAO airport designator
Station Type Date Time Source
HETB METAR 2020/01/12 10:54 UTC NOAA

HETB 121054Z 22008KT 9999 SCT025 15/10 Q1026 NOSIG


Station Type Date Time Source
HETB Decoded METAR 2020/01/12 10:54 UTC NOAA

Taba, Egypt (HETB) 29-35-57N 034-46-36E
Jan 12, 2020 - 05:54 AM EST / 2020.01.12 1054 UTC
Wind: from the SW (220 degrees) at 9 MPH (8 KT):0
Visibility: greater than 7 mile(s):0
Sky conditions: partly cloudy
Temperature: 59 F (15 C)
Dew Point: 50 F (10 C)
Relative Humidity: 72%
Pressure (altimeter): 30.30 in. Hg (1026 hPa)
ob: HETB 121054Z 22008KT 9999 SCT025 15/10 Q1026 NOSIG
cycle: 11

Station Type Date Time Source
HETB TAF 2020/03/29 18:09 UTC NOAA

TAF HETB 291700Z 2918/3024 02012KT CAVOK

Example: see airport list